sensor_id;sensor_type;location;lat;lon;timestamp;pressure;altitude;pressure_sealevel;temperature;humidity
70968;BME280;58629;48.808;8.820;2023-03-25T00:00:48;96519.03;;;7.33;92.39
70968;BME280;58629;48.808;8.820;2023-03-25T00:03:17;96523.25;;;7.27;93.52
70968;BME280;58629;48.808;8.820;2023-03-25T00:05:43;96520.63;;;7.27;94.09
70968;BME280;58629;48.808;8.820;2023-03-25T00:08:08;96524.75;;;7.28;93.17
70968;BME280;58629;48.808;8.820;2023-03-25T00:10:33;96521.78;;;7.26;94.14
70968;BME280;58629;48.808;8.820;2023-03-25T00:12:58;96510.13;;;7.24;94.89
70968;BME280;58629;48.808;8.820;2023-03-25T00:15:29;96507.44;;;7.27;94.65
70968;BME280;58629;48.808;8.820;2023-03-25T00:17:58;96520.97;;;7.29;93.29
70968;BME280;58629;48.808;8.820;2023-03-25T00:20:23;96516.84;;;7.28;92.62
70968;BME280;58629;48.808;8.820;2023-03-25T00:22:48;96511.59;;;7.28;92.77
70968;BME280;58629;48.808;8.820;2023-03-25T00:25:14;96513.25;;;7.42;91.01
70968;BME280;58629;48.808;8.820;2023-03-25T00:27:41;96526.91;;;7.33;92.90
70968;BME280;58629;48.808;8.820;2023-03-25T00:30:08;96524.91;;;7.41;92.26
70968;BME280;58629;48.808;8.820;2023-03-25T00:32:34;96506.88;;;7.39;93.55
70968;BME280;58629;48.808;8.820;2023-03-25T00:34:59;96510.34;;;7.36;94.81
70968;BME280;58629;48.808;8.820;2023-03-25T00:37:25;96511.88;;;7.34;95.93
70968;BME280;58629;48.808;8.820;2023-03-25T00:39:52;96488.91;;;7.34;96.38
70968;BME280;58629;48.808;8.820;2023-03-25T00:42:17;96492.47;;;7.24;96.46
70968;BME280;58629;48.808;8.820;2023-03-25T00:44:51;96489.97;;;7.14;97.61
70968;BME280;58629;48.808;8.820;2023-03-25T00:47:17;96486.25;;;7.11;98.09
70968;BME280;58629;48.808;8.820;2023-03-25T00:49:43;96477.69;;;7.07;97.97
70968;BME280;58629;48.808;8.820;2023-03-25T00:52:08;96477.31;;;7.05;97.23
70968;BME280;58629;48.808;8.820;2023-03-25T00:54:34;96470.47;;;6.84;96.11
70968;BME280;58629;48.808;8.820;2023-03-25T00:57:00;96481.75;;;6.85;96.53
70968;BME280;58629;48.808;8.820;2023-03-25T00:59:25;96472.75;;;6.82;97.41
70968;BME280;58629;48.808;8.820;2023-03-25T01:01:50;96473.09;;;6.84;96.79
70968;BME280;58629;48.808;8.820;2023-03-25T01:04:17;96480.22;;;6.84;96.92
70968;BME280;58629;48.808;8.820;2023-03-25T01:06:43;96480.28;;;6.80;97.02
70968;BME280;58629;48.808;8.820;2023-03-25T01:09:11;96484.81;;;6.80;98.03
70968;BME280;58629;48.808;8.820;2023-03-25T01:11:42;96484.84;;;6.76;98.31
70968;BME280;58629;48.808;8.820;2023-03-25T01:14:14;96477.97;;;6.56;99.44
70968;BME280;58629;48.808;8.820;2023-03-25T01:16:40;96495.19;;;6.60;99.71
70968;BME280;58629;48.808;8.820;2023-03-25T01:19:06;96479.03;;;6.62;99.26
70968;BME280;58629;48.808;8.820;2023-03-25T01:21:31;96467.41;;;6.59;99.53
70968;BME280;58629;48.808;8.820;2023-03-25T01:24:02;96450.84;;;6.62;98.72
70968;BME280;58629;48.808;8.820;2023-03-25T01:26:28;96452.81;;;6.55;97.20
70968;BME280;58629;48.808;8.820;2023-03-25T01:28:53;96440.78;;;6.54;95.48
70968;BME280;58629;48.808;8.820;2023-03-25T01:31:18;96444.81;;;6.62;96.20
70968;BME280;58629;48.808;8.820;2023-03-25T01:33:44;96440.25;;;6.66;96.21
70968;BME280;58629;48.808;8.820;2023-03-25T01:36:10;96450.06;;;6.65;94.98
70968;BME280;58629;48.808;8.820;2023-03-25T01:38:37;96452.22;;;6.70;94.79
70968;BME280;58629;48.808;8.820;2023-03-25T01:41:03;96460.59;;;6.65;94.51
70968;BME280;58629;48.808;8.820;2023-03-25T01:43:29;96453.03;;;6.67;95.11
70968;BME280;58629;48.808;8.820;2023-03-25T01:45:54;96450.78;;;6.66;95.32
70968;BME280;58629;48.808;8.820;2023-03-25T01:48:26;96453.03;;;6.67;94.63
70968;BME280;58629;48.808;8.820;2023-03-25T01:51:03;96446.22;;;6.70;93.85
70968;BME280;58629;48.808;8.820;2023-03-25T01:53:31;96447.03;;;6.67;93.67
70968;BME280;58629;48.808;8.820;2023-03-25T01:55:59;96444.00;;;6.68;93.93
70968;BME280;58629;48.808;8.820;2023-03-25T01:58:28;96439.56;;;6.62;93.90
70968;BME280;58629;48.808;8.820;2023-03-25T02:00:55;96432.06;;;6.60;93.61
70968;BME280;58629;48.808;8.820;2023-03-25T02:03:22;96425.72;;;6.58;93.94
70968;BME280;58629;48.808;8.820;2023-03-25T02:06:02;96439.63;;;6.58;94.19
70968;BME280;58629;48.808;8.820;2023-03-25T02:08:32;96440.38;;;6.59;95.12
70968;BME280;58629;48.808;8.820;2023-03-25T02:10:58;96434.75;;;6.57;93.66
70968;BME280;58629;48.808;8.820;2023-03-25T02:13:24;96453.06;;;6.64;94.50
70968;BME280;58629;48.808;8.820;2023-03-25T02:15:56;96461.28;;;6.69;94.68
70968;BME280;58629;48.808;8.820;2023-03-25T02:24:45;96515.84;;;6.32;93.69
70968;BME280;58629;48.808;8.820;2023-03-25T02:30:34;96531.56;;;5.54;97.19
70968;BME280;58629;48.808;8.820;2023-03-25T02:38:54;96534.91;;;5.03;97.46
70968;BME280;58629;48.808;8.820;2023-03-25T02:41:49;96519.88;;;5.07;97.76
70968;BME280;58629;48.808;8.820;2023-03-25T02:46:50;96481.66;;;5.02;98.11
70968;BME280;58629;48.808;8.820;2023-03-25T02:49:27;96481.66;;;5.02;98.05
70968;BME280;58629;48.808;8.820;2023-03-25T02:52:04;96476.41;;;5.06;98.23
70968;BME280;58629;48.808;8.820;2023-03-25T02:54:33;96468.13;;;5.11;98.21
70968;BME280;58629;48.808;8.820;2023-03-25T02:57:01;96470.34;;;5.12;98.51
70968;BME280;58629;48.808;8.820;2023-03-25T02:59:29;96464.34;;;5.12;97.24
70968;BME280;58629;48.808;8.820;2023-03-25T03:01:58;96454.50;;;5.23;97.09
70968;BME280;58629;48.808;8.820;2023-03-25T03:04:24;96462.75;;;5.28;96.53
70968;BME280;58629;48.808;8.820;2023-03-25T03:06:51;96448.50;;;5.26;97.03
70968;BME280;58629;48.808;8.820;2023-03-25T03:09:38;96430.44;;;5.32;96.75
70968;BME280;58629;48.808;8.820;2023-03-25T03:12:35;96435.66;;;5.35;96.61
70968;BME280;58629;48.808;8.820;2023-03-25T03:18:07;96440.84;;;5.46;95.97
70968;BME280;58629;48.808;8.820;2023-03-25T03:20:54;96434.78;;;5.49;95.75
70968;BME280;58629;48.808;8.820;2023-03-25T03:23:29;96436.66;;;5.52;95.72
70968;BME280;58629;48.808;8.820;2023-03-25T03:26:13;96444.03;;;5.64;96.07
70968;BME280;58629;48.808;8.820;2023-03-25T03:28:46;96450.06;;;5.64;94.10
70968;BME280;58629;48.808;8.820;2023-03-25T03:31:21;96447.38;;;5.68;94.89
70968;BME280;58629;48.808;8.820;2023-03-25T03:33:56;96446.25;;;5.69;95.13
70968;BME280;58629;48.808;8.820;2023-03-25T03:36:29;96440.97;;;5.72;94.16
70968;BME280;58629;48.808;8.820;2023-03-25T03:39:05;96427.84;;;5.72;93.51
70968;BME280;58629;48.808;8.820;2023-03-25T03:41:37;96442.00;;;5.82;92.15
70968;BME280;58629;48.808;8.820;2023-03-25T03:44:09;96435.16;;;5.91;90.79
70968;BME280;58629;48.808;8.820;2023-03-25T03:46:40;96445.28;;;5.93;90.72
70968;BME280;58629;48.808;8.820;2023-03-25T03:49:09;96444.97;;;5.87;90.96
70968;BME280;58629;48.808;8.820;2023-03-25T03:51:39;96439.66;;;5.91;91.02
70968;BME280;58629;48.808;8.820;2023-03-25T03:54:17;96444.34;;;6.10;89.55
70968;BME280;58629;48.808;8.820;2023-03-25T03:59:56;96457.16;;;6.04;90.91
70968;BME280;58629;48.808;8.820;2023-03-25T04:02:33;96466.91;;;6.07;91.12
70968;BME280;58629;48.808;8.820;2023-03-25T04:05:03;96477.13;;;5.98;90.17
70968;BME280;58629;48.808;8.820;2023-03-25T04:07:39;96491.47;;;5.90;91.09
70968;BME280;58629;48.808;8.820;2023-03-25T04:10:29;96482.88;;;5.86;89.46
70968;BME280;58629;48.808;8.820;2023-03-25T04:13:08;96489.94;;;5.93;90.14
70968;BME280;58629;48.808;8.820;2023-03-25T04:15:35;96490.75;;;5.90;89.85
70968;BME280;58629;48.808;8.820;2023-03-25T04:18:00;96484.69;;;5.93;89.80
70968;BME280;58629;48.808;8.820;2023-03-25T04:20:29;96484.72;;;5.89;90.62
70968;BME280;58629;48.808;8.820;2023-03-25T04:22:58;96473.88;;;5.87;89.71
70968;BME280;58629;48.808;8.820;2023-03-25T04:25:23;96480.63;;;5.85;90.70
70968;BME280;58629;48.808;8.820;2023-03-25T04:27:49;96496.84;;;5.76;90.91
70968;BME280;58629;48.808;8.820;2023-03-25T04:30:23;96488.53;;;5.81;91.07
70968;BME280;58629;48.808;8.820;2023-03-25T04:32:48;96490.44;;;5.77;91.61
70968;BME280;58629;48.808;8.820;2023-03-25T04:35:16;96484.72;;;5.89;88.16
70968;BME280;58629;48.808;8.820;2023-03-25T04:37:43;96485.91;;;5.85;88.60
70968;BME280;58629;48.808;8.820;2023-03-25T04:40:14;96488.94;;;5.80;89.88
70968;BME280;58629;48.808;8.820;2023-03-25T04:42:43;96499.84;;;5.75;90.86
70968;BME280;58629;48.808;8.820;2023-03-25T04:45:11;96489.81;;;5.66;91.92
70968;BME280;58629;48.808;8.820;2023-03-25T04:47:39;96490.53;;;5.67;89.94
70968;BME280;58629;48.808;8.820;2023-03-25T04:50:21;96496.16;;;5.69;89.75
70968;BME280;58629;48.808;8.820;2023-03-25T04:52:48;96502.94;;;5.63;88.82
70968;BME280;58629;48.808;8.820;2023-03-25T04:55:14;96510.47;;;5.61;89.84
70968;BME280;58629;48.808;8.820;2023-03-25T04:57:43;96515.34;;;5.62;88.59
70968;BME280;58629;48.808;8.820;2023-03-25T05:00:09;96526.59;;;5.66;88.13
70968;BME280;58629;48.808;8.820;2023-03-25T05:02:35;96528.81;;;5.68;87.72
70968;BME280;58629;48.808;8.820;2023-03-25T05:05:02;96522.69;;;5.81;87.22
70968;BME280;58629;48.808;8.820;2023-03-25T05:07:28;96530.53;;;5.88;87.20
70968;BME280;58629;48.808;8.820;2023-03-25T05:09:54;96527.91;;;5.88;87.45
70968;BME280;58629;48.808;8.820;2023-03-25T05:12:21;96525.63;;;5.94;87.55
70968;BME280;58629;48.808;8.820;2023-03-25T05:14:46;96520.69;;;5.99;88.23
70968;BME280;58629;48.808;8.820;2023-03-25T05:17:11;96527.44;;;5.97;87.02
70968;BME280;58629;48.808;8.820;2023-03-25T05:19:37;96527.06;;;5.98;88.47
70968;BME280;58629;48.808;8.820;2023-03-25T05:22:02;96524.78;;;6.04;86.42
70968;BME280;58629;48.808;8.820;2023-03-25T05:24:28;96533.38;;;6.04;87.23
70968;BME280;58629;48.808;8.820;2023-03-25T05:26:54;96537.50;;;6.05;87.82
70968;BME280;58629;48.808;8.820;2023-03-25T05:29:19;96533.78;;;6.03;88.86
70968;BME280;58629;48.808;8.820;2023-03-25T05:31:45;96545.09;;;6.00;86.43
70968;BME280;58629;48.808;8.820;2023-03-25T05:34:11;96538.72;;;5.97;87.42
70968;BME280;58629;48.808;8.820;2023-03-25T05:36:38;96547.59;;;6.10;85.61
70968;BME280;58629;48.808;8.820;2023-03-25T05:39:04;96541.94;;;6.12;86.62
70968;BME280;58629;48.808;8.820;2023-03-25T05:41:30;96545.31;;;6.12;86.92
70968;BME280;58629;48.808;8.820;2023-03-25T05:44:03;96541.16;;;6.15;87.13
70968;BME280;58629;48.808;8.820;2023-03-25T05:46:29;96544.56;;;6.16;86.75
70968;BME280;58629;48.808;8.820;2023-03-25T05:48:55;96549.44;;;6.13;86.85
70968;BME280;58629;48.808;8.820;2023-03-25T05:51:23;96546.81;;;6.13;86.08
70968;BME280;58629;48.808;8.820;2023-03-25T05:53:49;96548.69;;;6.13;87.92
70968;BME280;58629;48.808;8.820;2023-03-25T05:56:15;96549.81;;;6.16;88.28
70968;BME280;58629;48.808;8.820;2023-03-25T05:58:42;96561.06;;;6.16;87.65
70968;BME280;58629;48.808;8.820;2023-03-25T06:01:09;96553.16;;;6.20;87.91
70968;BME280;58629;48.808;8.820;2023-03-25T06:03:35;96557.88;;;6.35;85.61
70968;BME280;58629;48.808;8.820;2023-03-25T06:06:00;96556.34;;;6.38;85.46
70968;BME280;58629;48.808;8.820;2023-03-25T06:08:27;96551.09;;;6.34;86.65
70968;BME280;58629;48.808;8.820;2023-03-25T06:10:56;96552.31;;;6.30;86.63
70968;BME280;58629;48.808;8.820;2023-03-25T06:13:25;96569.97;;;6.29;86.96
70968;BME280;58629;48.808;8.820;2023-03-25T06:15:51;96563.19;;;6.28;86.94
70968;BME280;58629;48.808;8.820;2023-03-25T06:18:21;96561.72;;;6.27;86.28
70968;BME280;58629;48.808;8.820;2023-03-25T06:20:49;96555.34;;;6.25;86.56
70968;BME280;58629;48.808;8.820;2023-03-25T06:23:16;96555.66;;;6.30;86.87
70968;BME280;58629;48.808;8.820;2023-03-25T06:25:41;96552.63;;;6.35;88.10
70968;BME280;58629;48.808;8.820;2023-03-25T06:28:06;96547.88;;;6.57;86.28
70968;BME280;58629;48.808;8.820;2023-03-25T06:30:31;96548.56;;;6.61;86.63
70968;BME280;58629;48.808;8.820;2023-03-25T06:32:57;96550.44;;;6.60;88.76
70968;BME280;58629;48.808;8.820;2023-03-25T06:35:23;96550.69;;;6.73;94.54
70968;BME280;58629;48.808;8.820;2023-03-25T06:37:48;96547.97;;;6.80;93.28
70968;BME280;58629;48.808;8.820;2023-03-25T06:40:14;96557.66;;;6.86;94.68
70968;BME280;58629;48.808;8.820;2023-03-25T06:42:40;96564.97;;;7.02;95.35
70968;BME280;58629;48.808;8.820;2023-03-25T06:45:06;96558.44;;;7.14;93.80
70968;BME280;58629;48.808;8.820;2023-03-25T06:47:32;96553.44;;;7.19;91.65
70968;BME280;58629;48.808;8.820;2023-03-25T06:49:57;96563.66;;;7.44;93.25
70968;BME280;58629;48.808;8.820;2023-03-25T06:52:23;96561.16;;;7.60;92.34
70968;BME280;58629;48.808;8.820;2023-03-25T06:54:48;96557.09;;;7.78;92.30
70968;BME280;58629;48.808;8.820;2023-03-25T06:57:14;96565.09;;;7.95;91.42
70968;BME280;58629;48.808;8.820;2023-03-25T06:59:39;96565.03;;;8.21;92.83
70968;BME280;58629;48.808;8.820;2023-03-25T07:02:05;96563.47;;;8.66;92.44
70968;BME280;58629;48.808;8.820;2023-03-25T07:04:30;96562.91;;;8.95;86.66
70968;BME280;58629;48.808;8.820;2023-03-25T07:06:55;96579.38;;;8.63;79.79
70968;BME280;58629;48.808;8.820;2023-03-25T07:09:21;96574.44;;;8.85;76.46
70968;BME280;58629;48.808;8.820;2023-03-25T07:11:46;96569.50;;;8.87;80.56
70968;BME280;58629;48.808;8.820;2023-03-25T07:14:11;96570.84;;;8.95;82.98
70968;BME280;58629;48.808;8.820;2023-03-25T07:16:36;96575.38;;;8.94;82.31
70968;BME280;58629;48.808;8.820;2023-03-25T07:19:02;96565.75;;;9.04;77.48
70968;BME280;58629;48.808;8.820;2023-03-25T07:21:27;96563.94;;;9.01;80.44
70968;BME280;58629;48.808;8.820;2023-03-25T07:23:53;96562.75;;;9.37;81.43
70968;BME280;58629;48.808;8.820;2023-03-25T07:26:18;96562.94;;;9.79;80.22
70968;BME280;58629;48.808;8.820;2023-03-25T07:28:43;96554.19;;;9.49;76.61
70968;BME280;58629;48.808;8.820;2023-03-25T07:31:11;96555.75;;;9.63;80.42
70968;BME280;58629;48.808;8.820;2023-03-25T07:33:37;96549.97;;;9.68;80.54
70968;BME280;58629;48.808;8.820;2023-03-25T07:36:04;96555.00;;;10.11;80.95
70968;BME280;58629;48.808;8.820;2023-03-25T07:38:31;96556.25;;;9.90;77.23
70968;BME280;58629;48.808;8.820;2023-03-25T07:40:56;96548.72;;;9.73;76.99
70968;BME280;58629;48.808;8.820;2023-03-25T07:43:22;96555.09;;;9.75;78.66
70968;BME280;58629;48.808;8.820;2023-03-25T07:45:47;96554.34;;;9.75;76.95
70968;BME280;58629;48.808;8.820;2023-03-25T07:48:12;96549.75;;;9.63;76.90
70968;BME280;58629;48.808;8.820;2023-03-25T07:50:40;96554.41;;;9.55;77.74
70968;BME280;58629;48.808;8.820;2023-03-25T07:53:05;96544.38;;;9.66;78.27
70968;BME280;58629;48.808;8.820;2023-03-25T07:55:31;96546.25;;;9.98;77.52
70968;BME280;58629;48.808;8.820;2023-03-25T07:57:56;96549.78;;;9.91;73.63
70968;BME280;58629;48.808;8.820;2023-03-25T08:00:29;96549.47;;;9.89;74.79
70968;BME280;58629;48.808;8.820;2023-03-25T08:02:55;96551.28;;;9.92;76.20
70968;BME280;58629;48.808;8.820;2023-03-25T08:05:20;96545.75;;;9.87;76.19
70968;BME280;58629;48.808;8.820;2023-03-25T08:07:47;96542.06;;;9.68;75.72
70968;BME280;58629;48.808;8.820;2023-03-25T08:10:12;96551.44;;;9.37;77.06
70968;BME280;58629;48.808;8.820;2023-03-25T08:12:41;96541.13;;;9.42;75.55
70968;BME280;58629;48.808;8.820;2023-03-25T08:15:07;96548.72;;;9.40;77.59
70968;BME280;58629;48.808;8.820;2023-03-25T08:17:32;96541.69;;;9.34;76.19
70968;BME280;58629;48.808;8.820;2023-03-25T08:19:58;96549.50;;;9.21;75.76
70968;BME280;58629;48.808;8.820;2023-03-25T08:22:24;96547.72;;;9.34;76.81
70968;BME280;58629;48.808;8.820;2023-03-25T08:24:50;96548.78;;;9.21;77.20
70968;BME280;58629;48.808;8.820;2023-03-25T08:27:15;96549.34;;;9.12;78.62
70968;BME280;58629;48.808;8.820;2023-03-25T08:29:41;96566.03;;;8.70;82.12
70968;BME280;58629;48.808;8.820;2023-03-25T08:32:06;96574.22;;;8.56;83.01
70968;BME280;58629;48.808;8.820;2023-03-25T08:34:31;96577.81;;;8.46;85.07
70968;BME280;58629;48.808;8.820;2023-03-25T08:37:06;96585.81;;;8.19;87.29
70968;BME280;58629;48.808;8.820;2023-03-25T08:39:32;96585.38;;;8.21;86.79
70968;BME280;58629;48.808;8.820;2023-03-25T08:42:04;96582.53;;;8.12;89.01
70968;BME280;58629;48.808;8.820;2023-03-25T08:44:29;96591.38;;;8.02;90.34
70968;BME280;58629;48.808;8.820;2023-03-25T08:46:54;96605.09;;;7.66;90.27
70968;BME280;58629;48.808;8.820;2023-03-25T08:49:20;96596.03;;;7.67;90.75
70968;BME280;58629;48.808;8.820;2023-03-25T08:51:45;96596.88;;;7.61;91.75
70968;BME280;58629;48.808;8.820;2023-03-25T08:54:10;96582.50;;;7.92;93.81
70968;BME280;58629;48.808;8.820;2023-03-25T08:56:35;96585.47;;;7.94;88.62
70968;BME280;58629;48.808;8.820;2023-03-25T08:59:01;96572.31;;;8.37;92.48
70968;BME280;58629;48.808;8.820;2023-03-25T09:01:26;96571.78;;;8.26;93.37
70968;BME280;58629;48.808;8.820;2023-03-25T09:03:51;96571.97;;;8.35;92.14
70968;BME280;58629;48.808;8.820;2023-03-25T09:06:17;96576.47;;;8.77;88.96
70968;BME280;58629;48.808;8.820;2023-03-25T09:08:42;96571.47;;;8.83;89.88
70968;BME280;58629;48.808;8.820;2023-03-25T09:11:07;96577.53;;;8.60;86.88
70968;BME280;58629;48.808;8.820;2023-03-25T09:13:33;96573.88;;;8.73;87.63
70968;BME280;58629;48.808;8.820;2023-03-25T09:15:58;96571.19;;;8.97;90.00
70968;BME280;58629;48.808;8.820;2023-03-25T09:18:23;96572.88;;;9.07;87.58
70968;BME280;58629;48.808;8.820;2023-03-25T09:20:48;96575.56;;;9.55;89.36
70968;BME280;58629;48.808;8.820;2023-03-25T09:23:16;96570.72;;;9.70;85.84
70968;BME280;58629;48.808;8.820;2023-03-25T09:25:41;96572.69;;;9.98;85.19
70968;BME280;58629;48.808;8.820;2023-03-25T09:28:07;96555.66;;;10.15;85.33
70968;BME280;58629;48.808;8.820;2023-03-25T09:30:32;96560.03;;;10.50;84.76
70968;BME280;58629;48.808;8.820;2023-03-25T09:32:57;96562.59;;;10.25;84.33
70968;BME280;58629;48.808;8.820;2023-03-25T09:35:23;96568.72;;;10.06;81.14
70968;BME280;58629;48.808;8.820;2023-03-25T09:37:48;96560.84;;;10.18;82.97
70968;BME280;58629;48.808;8.820;2023-03-25T09:40:15;96559.44;;;10.59;82.63
70968;BME280;58629;48.808;8.820;2023-03-25T09:43:00;96564.59;;;11.03;82.75
70968;BME280;58629;48.808;8.820;2023-03-25T09:45:41;96566.63;;;11.12;80.13
70968;BME280;58629;48.808;8.820;2023-03-25T09:48:29;96564.47;;;10.82;78.92
70968;BME280;58629;48.808;8.820;2023-03-25T09:51:05;96556.25;;;10.64;78.63
70968;BME280;58629;48.808;8.820;2023-03-25T09:56:27;96553.94;;;10.37;78.74
70968;BME280;58629;48.808;8.820;2023-03-25T09:59:00;96557.09;;;10.61;81.58
70968;BME280;58629;48.808;8.820;2023-03-25T10:05:01;96549.84;;;10.77;77.52
70968;BME280;58629;48.808;8.820;2023-03-25T10:07:31;96564.09;;;11.08;77.73
70968;BME280;58629;48.808;8.820;2023-03-25T10:10:14;96545.66;;;11.05;77.32
70968;BME280;58629;48.808;8.820;2023-03-25T10:12:52;96553.09;;;11.22;75.77
70968;BME280;58629;48.808;8.820;2023-03-25T10:15:32;96553.19;;;11.31;75.44
70968;BME280;58629;48.808;8.820;2023-03-25T10:18:32;96552.88;;;11.80;75.70
70968;BME280;58629;48.808;8.820;2023-03-25T10:21:22;96547.09;;;12.28;75.82
70968;BME280;58629;48.808;8.820;2023-03-25T10:24:01;96571.81;;;11.91;72.64
70968;BME280;58629;48.808;8.820;2023-03-25T10:26:47;96544.41;;;11.34;70.40
70968;BME280;58629;48.808;8.820;2023-03-25T10:29:18;96560.19;;;11.38;74.86
70968;BME280;58629;48.808;8.820;2023-03-25T10:31:53;96558.47;;;11.06;71.54
70968;BME280;58629;48.808;8.820;2023-03-25T10:34:28;96567.41;;;10.71;69.86
70968;BME280;58629;48.808;8.820;2023-03-25T10:37:01;96563.44;;;10.51;71.87
70968;BME280;58629;48.808;8.820;2023-03-25T10:39:30;96568.34;;;10.36;69.88
70968;BME280;58629;48.808;8.820;2023-03-25T10:42:02;96575.59;;;10.19;73.07
70968;BME280;58629;48.808;8.820;2023-03-25T10:44:28;96585.63;;;10.40;72.98
70968;BME280;58629;48.808;8.820;2023-03-25T10:47:03;96574.34;;;10.53;71.64
70968;BME280;58629;48.808;8.820;2023-03-25T10:49:31;96554.31;;;10.93;70.44
70968;BME280;58629;48.808;8.820;2023-03-25T10:51:58;96553.03;;;10.97;71.75
70968;BME280;58629;48.808;8.820;2023-03-25T10:54:45;96562.72;;;11.29;72.67
70968;BME280;58629;48.808;8.820;2023-03-25T10:57:19;96555.72;;;11.35;70.53
70968;BME280;58629;48.808;8.820;2023-03-25T10:59:57;96566.34;;;11.22;66.15
70968;BME280;58629;48.808;8.820;2023-03-25T11:02:27;96563.16;;;11.27;70.63
70968;BME280;58629;48.808;8.820;2023-03-25T11:05:01;96568.03;;;11.54;71.59
70968;BME280;58629;48.808;8.820;2023-03-25T11:07:34;96566.53;;;11.53;67.82
70968;BME280;58629;48.808;8.820;2023-03-25T11:12:38;96552.88;;;11.17;69.30
70968;BME280;58629;48.808;8.820;2023-03-25T11:15:12;96559.09;;;10.98;69.31
70968;BME280;58629;48.808;8.820;2023-03-25T11:17:38;96554.25;;;11.09;69.94
70968;BME280;58629;48.808;8.820;2023-03-25T11:20:05;96535.78;;;11.43;67.66
70968;BME280;58629;48.808;8.820;2023-03-25T11:22:36;96550.88;;;11.21;67.07
70968;BME280;58629;48.808;8.820;2023-03-25T11:25:05;96536.53;;;11.44;68.15
70968;BME280;58629;48.808;8.820;2023-03-25T11:27:39;96551.69;;;11.18;67.45
70968;BME280;58629;48.808;8.820;2023-03-25T11:30:18;96546.19;;;11.12;71.42
70968;BME280;58629;48.808;8.820;2023-03-25T11:32:55;96534.09;;;11.49;69.52
70968;BME280;58629;48.808;8.820;2023-03-25T11:35:23;96537.41;;;11.66;68.52
70968;BME280;58629;48.808;8.820;2023-03-25T11:37:55;96555.25;;;12.12;68.26
70968;BME280;58629;48.808;8.820;2023-03-25T11:40:20;96549.06;;;11.68;66.41
70968;BME280;58629;48.808;8.820;2023-03-25T11:42:51;96569.31;;;11.24;64.86
70968;BME280;58629;48.808;8.820;2023-03-25T11:45:20;96579.78;;;10.33;71.92
70968;BME280;58629;48.808;8.820;2023-03-25T11:47:46;96571.28;;;9.93;76.48
70968;BME280;58629;48.808;8.820;2023-03-25T11:50:24;96567.06;;;9.96;77.40
70968;BME280;58629;48.808;8.820;2023-03-25T11:53:01;96539.38;;;10.45;76.28
70968;BME280;58629;48.808;8.820;2023-03-25T11:55:30;96552.34;;;10.68;76.59
70968;BME280;58629;48.808;8.820;2023-03-25T11:57:58;96554.75;;;10.91;75.68
70968;BME280;58629;48.808;8.820;2023-03-25T12:00:36;96538.44;;;11.18;70.77
70968;BME280;58629;48.808;8.820;2023-03-25T12:05:38;96553.81;;;11.73;71.91
70968;BME280;58629;48.808;8.820;2023-03-25T12:08:10;96554.97;;;11.85;72.75
70968;BME280;58629;48.808;8.820;2023-03-25T12:10:54;96564.81;;;11.97;67.83
70968;BME280;58629;48.808;8.820;2023-03-25T12:24:36;96597.31;;;9.95;77.89
70968;BME280;58629;48.808;8.820;2023-03-25T12:27:29;96622.84;;;9.69;78.98
70968;BME280;58629;48.808;8.820;2023-03-25T12:38:47;96597.00;;;10.54;79.93
70968;BME280;58629;48.808;8.820;2023-03-25T12:41:27;96583.25;;;10.87;78.11
70968;BME280;58629;48.808;8.820;2023-03-25T12:46:47;96582.28;;;10.81;75.80
70968;BME280;58629;48.808;8.820;2023-03-25T12:57:20;96575.91;;;10.50;77.81
70968;BME280;58629;48.808;8.820;2023-03-25T13:05:29;96551.72;;;11.30;74.70
70968;BME280;58629;48.808;8.820;2023-03-25T13:08:11;96552.00;;;11.58;73.91
70968;BME280;58629;48.808;8.820;2023-03-25T13:10:40;96578.84;;;11.47;71.56
70968;BME280;58629;48.808;8.820;2023-03-25T13:13:18;96576.84;;;11.76;72.15
70968;BME280;58629;48.808;8.820;2023-03-25T13:15:56;96574.72;;;11.84;70.02
70968;BME280;58629;48.808;8.820;2023-03-25T13:18:34;96563.69;;;12.19;69.98
70968;BME280;58629;48.808;8.820;2023-03-25T13:21:12;96571.00;;;11.69;71.92
70968;BME280;58629;48.808;8.820;2023-03-25T13:23:42;96575.25;;;11.54;70.33
70968;BME280;58629;48.808;8.820;2023-03-25T13:26:11;96561.56;;;11.55;73.28
70968;BME280;58629;48.808;8.820;2023-03-25T13:28:43;96543.91;;;11.99;72.65
70968;BME280;58629;48.808;8.820;2023-03-25T13:31:22;96538.09;;;11.79;70.23
70968;BME280;58629;48.808;8.820;2023-03-25T13:34:21;96515.22;;;12.06;70.57
70968;BME280;58629;48.808;8.820;2023-03-25T13:37:07;96511.22;;;12.02;70.91
70968;BME280;58629;48.808;8.820;2023-03-25T13:45:34;96554.75;;;11.29;67.38
70968;BME280;58629;48.808;8.820;2023-03-25T13:50:36;96611.28;;;10.43;70.13
70968;BME280;58629;48.808;8.820;2023-03-25T13:53:08;96634.56;;;10.00;73.33
70968;BME280;58629;48.808;8.820;2023-03-25T13:55:40;96620.91;;;9.18;76.65
70968;BME280;58629;48.808;8.820;2023-03-25T13:58:28;96613.81;;;8.75;79.21
70968;BME280;58629;48.808;8.820;2023-03-25T14:01:14;96596.34;;;9.21;84.35
70968;BME280;58629;48.808;8.820;2023-03-25T14:12:10;96563.69;;;10.69;77.47
70968;BME280;58629;48.808;8.820;2023-03-25T14:14:44;96553.38;;;10.99;74.86
70968;BME280;58629;48.808;8.820;2023-03-25T14:17:12;96563.16;;;11.15;75.06
70968;BME280;58629;48.808;8.820;2023-03-25T14:19:42;96548.22;;;11.21;74.69
70968;BME280;58629;48.808;8.820;2023-03-25T14:22:21;96578.31;;;11.14;73.44
70968;BME280;58629;48.808;8.820;2023-03-25T14:24:48;96558.84;;;10.80;76.13
70968;BME280;58629;48.808;8.820;2023-03-25T14:29:54;96562.91;;;10.97;73.88
70968;BME280;58629;48.808;8.820;2023-03-25T14:34:47;96546.28;;;11.09;72.66
70968;BME280;58629;48.808;8.820;2023-03-25T14:37:22;96534.75;;;11.41;72.26
70968;BME280;58629;48.808;8.820;2023-03-25T14:40:00;96529.22;;;11.60;69.50
70968;BME280;58629;48.808;8.820;2023-03-25T14:42:42;96538.03;;;11.45;68.80
70968;BME280;58629;48.808;8.820;2023-03-25T14:47:56;96536.66;;;11.15;69.18
70968;BME280;58629;48.808;8.820;2023-03-25T14:52:53;96526.13;;;11.49;65.97
70968;BME280;58629;48.808;8.820;2023-03-25T14:55:26;96530.16;;;11.41;68.43
70968;BME280;58629;48.808;8.820;2023-03-25T14:58:01;96517.31;;;11.77;65.80
70968;BME280;58629;48.808;8.820;2023-03-25T15:00:32;96528.53;;;11.94;65.52